createdAt,value
2023-04-26T04:40:37.234Z,99289.23
2023-04-26T04:43:04.606Z,99290.25
2023-04-26T04:45:32.615Z,99286.75
2023-04-26T04:48:01.177Z,99288.28
2023-04-26T04:50:28.268Z,99288.58
2023-04-26T04:52:55.861Z,99279.27
2023-04-26T04:55:22.829Z,99277.61
2023-04-26T04:57:49.903Z,99280.16
2023-04-26T05:00:17.336Z,99279.55
2023-04-26T05:02:51.838Z,99282.65
2023-04-26T05:05:18.841Z,99284.88
2023-04-26T05:07:45.860Z,99279.80
2023-04-26T05:10:13.549Z,99281.96
2023-04-26T05:12:41.947Z,99283.36
2023-04-26T05:15:09.402Z,99282.80
2023-04-26T05:17:36.566Z,99281.86
2023-04-26T05:20:17.443Z,99271.82
2023-04-26T05:22:44.914Z,99275.13
2023-04-26T05:25:14.117Z,99276.72
2023-04-26T05:27:41.875Z,99276.55
2023-04-26T05:30:36.635Z,99270.56
2023-04-26T05:33:24.175Z,99276.90
2023-04-26T05:36:17.475Z,99271.33
2023-04-26T05:38:46.501Z,99267.66
2023-04-26T05:41:13.508Z,99266.44
2023-04-26T05:43:42.394Z,99264.30
2023-04-26T05:46:11.475Z,99268.63
2023-04-26T05:48:43.809Z,99267.71
2023-04-26T05:51:11.513Z,99269.96
2023-04-26T05:53:48.996Z,99272.74
2023-04-26T05:56:24.654Z,99266.65
2023-04-26T05:58:55.645Z,99264.91
2023-04-26T06:01:28.712Z,99263.13
2023-04-26T06:04:05.382Z,99262.67
2023-04-26T06:06:43.528Z,99264.47
2023-04-26T06:09:20.299Z,99265.08
2023-04-26T06:11:49.939Z,99265.29
2023-04-26T06:14:30.566Z,99261.86
2023-04-26T06:17:04.715Z,99262.15
2023-04-26T06:23:11.972Z,99265.15
2023-04-26T06:25:51.965Z,99266.81
2023-04-26T06:29:01.996Z,99266.61
2023-04-26T06:36:21.163Z,99273.13
2023-04-26T06:40:03.042Z,99270.11
2023-04-26T06:42:38.843Z,99265.90
2023-04-26T06:45:26.356Z,99268.13
2023-04-26T06:47:57.774Z,99262.45
2023-04-26T06:50:25.151Z,99257.95
2023-04-26T06:52:52.084Z,99254.96
2023-04-26T06:57:59.956Z,99250.77
2023-04-26T07:00:28.932Z,99251.53
2023-04-26T07:03:14.933Z,99249.83
2023-04-26T07:06:13.633Z,99256.02
2023-04-26T07:08:54.438Z,99258.91
2023-04-26T07:11:25.953Z,99263.82
2023-04-26T07:13:54.410Z,99262.77
2023-04-26T07:19:27.102Z,99260.73
2023-04-26T07:21:53.994Z,99258.09
2023-04-26T07:24:21.004Z,99257.55
2023-04-26T07:26:47.926Z,99253.13
2023-04-26T07:29:14.961Z,99256.47
2023-04-26T07:31:41.901Z,99250.27
2023-04-26T07:34:08.862Z,99248.11
2023-04-26T07:36:35.886Z,99255.66
2023-04-26T07:39:05.116Z,99255.43
2023-04-26T07:41:32.193Z,99253.39
2023-04-26T07:43:59.268Z,99264.42
2023-04-26T07:46:26.297Z,99264.09
2023-04-26T07:48:53.374Z,99260.77
2023-04-26T07:51:20.262Z,99253.05
2023-04-26T07:53:47.249Z,99253.46
2023-04-26T07:56:17.900Z,99254.23
2023-04-26T07:58:44.864Z,99258.33
2023-04-26T08:01:13.692Z,99261.52
2023-04-26T08:03:42.656Z,99260.15
2023-04-26T08:06:12.319Z,99263.17
2023-04-26T08:08:51.206Z,99263.14
2023-04-26T08:11:27.514Z,99259.33
2023-04-26T08:13:56.092Z,99257.81
2023-04-26T08:16:27.521Z,99255.75
2023-04-26T08:19:08.582Z,99251.52
2023-04-26T08:21:57.591Z,99258.12
2023-04-26T08:24:34.582Z,99255.30
2023-04-26T08:27:03.088Z,99258.81
2023-04-26T08:29:34.304Z,99257.45
2023-04-26T08:32:01.380Z,99258.85
2023-04-26T08:34:29.616Z,99256.48
2023-04-26T08:36:56.993Z,99262.02
2023-04-26T08:39:24.267Z,99258.67
2023-04-26T08:42:03.874Z,99258.63
2023-04-26T08:44:31.851Z,99255.37
2023-04-26T08:47:23.136Z,99264.16
2023-04-26T08:50:00.140Z,99263.42
2023-04-26T08:52:32.394Z,99266.14
2023-04-26T08:55:05.515Z,99268.23
2023-04-26T08:57:33.700Z,99268.64
2023-04-26T09:00:01.954Z,99264.79
2023-04-26T09:02:31.884Z,99264.47
2023-04-26T09:04:59.190Z,99260.29
2023-04-26T09:07:34.064Z,99255.67
2023-04-26T09:10:01.228Z,99257.98
2023-04-26T09:12:28.232Z,99262.75
2023-04-26T09:14:56.463Z,99260.81
2023-04-26T09:17:26.602Z,99251.98
2023-04-26T09:19:54.521Z,99252.30
2023-04-26T09:22:31.590Z,99252.90
2023-04-26T09:25:02.565Z,99249.15
2023-04-26T09:27:43.323Z,99246.20
2023-04-26T09:30:17.788Z,99246.49
2023-04-26T09:32:59.048Z,99249.50
2023-04-26T09:35:34.472Z,99243.64
2023-04-26T09:38:11.028Z,99246.31
2023-04-26T09:40:47.504Z,99242.56
2023-04-26T09:43:22.460Z,99238.29
2023-04-26T09:49:16.192Z,99246.24
2023-04-26T09:52:10.630Z,99245.90
2023-04-26T09:54:46.784Z,99252.25
2023-04-26T09:57:17.996Z,99257.02
2023-04-26T10:00:46.685Z,99260.20
2023-04-26T10:03:53.869Z,99265.09
2023-04-26T10:06:41.505Z,99267.77
2023-04-26T10:09:16.737Z,99263.03
2023-04-26T10:12:05.200Z,99267.88
2023-04-26T10:14:33.352Z,99268.73
2023-04-26T10:17:01.070Z,99271.64
2023-04-26T10:19:28.032Z,99273.30
2023-04-26T10:21:54.882Z,99281.10
2023-04-26T10:24:23.082Z,99285.02
2023-04-26T10:26:54.913Z,99282.62
2023-04-26T10:29:22.412Z,99288.45
2023-04-26T10:32:19.949Z,99287.61
2023-04-26T10:35:15.249Z,99285.36
2023-04-26T10:38:02.811Z,99289.36
2023-04-26T10:40:39.645Z,99289.55
2023-04-26T10:43:14.714Z,99294.61
2023-04-26T10:45:48.561Z,99294.93
2023-04-26T10:48:28.046Z,99293.92
2023-04-26T10:51:04.155Z,99297.49
2023-04-26T10:53:52.344Z,99298.75
2023-04-26T10:56:32.273Z,99299.48
2023-04-26T10:59:28.456Z,99294.43
2023-04-26T11:01:56.519Z,99302.23
2023-04-26T11:04:23.570Z,99307.40
2023-04-26T11:06:51.855Z,99314.04
2023-04-26T11:09:41.414Z,99320.05
2023-04-26T11:12:12.618Z,99318.67
2023-04-26T11:14:41.787Z,99320.29
2023-04-26T11:17:10.694Z,99319.57
2023-04-26T11:19:37.749Z,99319.88
2023-04-26T11:22:07.123Z,99316.66
2023-04-26T11:24:36.733Z,99315.21
2023-04-26T11:27:10.449Z,99314.30
2023-04-26T11:29:38.233Z,99317.77
2023-04-26T11:32:05.418Z,99310.31
2023-04-26T11:34:33.539Z,99306.99
2023-04-26T11:37:02.297Z,99304.80
2023-04-26T11:39:29.328Z,99303.23
2023-04-26T11:42:26.336Z,99297.31
2023-04-26T11:44:53.331Z,99300.85
2023-04-26T11:47:20.186Z,99298.66
2023-04-26T11:49:47.275Z,99300.66
2023-04-26T11:52:14.231Z,99295.67
2023-04-26T11:54:42.855Z,99292.27
2023-04-26T11:57:19.193Z,99291.90
2023-04-26T11:59:46.361Z,99292.41
2023-04-26T12:02:13.435Z,99284.98
2023-04-26T12:04:41.495Z,99281.67
2023-04-26T12:07:09.647Z,99283.39
2023-04-26T12:09:41.133Z,99277.19
2023-04-26T12:12:08.330Z,99270.81
2023-04-26T12:14:36.898Z,99268.39
2023-04-26T12:17:06.132Z,99262.94
2023-04-26T12:19:33.917Z,99256.82
2023-04-26T12:22:00.892Z,99257.14
